createdAt,value
2023-05-10T00:00:39.266Z,55.73
2023-05-10T00:01:39.265Z,58.58
2023-05-10T00:02:39.279Z,58.64
2023-05-10T00:03:39.278Z,60.07
2023-05-10T00:04:39.175Z,62.13
2023-05-10T00:05:39.159Z,61.97
2023-05-10T00:06:39.159Z,64.12
2023-05-10T00:07:39.252Z,59.96
2023-05-10T00:08:39.129Z,55.56
2023-05-10T00:09:39.158Z,60.45
2023-05-10T00:10:39.110Z,63.79
2023-05-10T00:11:39.145Z,61.40
2023-05-10T00:12:39.097Z,60.25
2023-05-10T00:13:39.150Z,61.27
2023-05-10T00:14:39.081Z,59.54
2023-05-10T00:15:39.117Z,61.03
2023-05-10T00:16:39.098Z,67.67
2023-05-10T00:17:39.151Z,57.13
2023-05-10T00:18:39.057Z,54.40
2023-05-10T00:19:39.049Z,61.46
2023-05-10T00:20:39.024Z,60.31
2023-05-10T00:21:39.050Z,61.29
2023-05-10T00:22:39.020Z,50.80
2023-05-10T00:23:39.076Z,61.85
2023-05-10T00:24:39.017Z,60.61
2023-05-10T00:25:39.016Z,63.26
2023-05-10T00:26:38.998Z,54.28
2023-05-10T00:27:39.005Z,63.41
2023-05-10T00:28:38.970Z,65.39
2023-05-10T00:29:38.996Z,63.07
2023-05-10T00:30:38.981Z,57.46
2023-05-10T00:31:38.974Z,61.70
2023-05-10T00:32:38.950Z,57.89
2023-05-10T00:33:38.954Z,61.24
2023-05-10T00:34:38.944Z,60.98
2023-05-10T00:35:38.935Z,58.73
2023-05-10T00:36:38.908Z,55.86
2023-05-10T00:37:38.924Z,60.30
2023-05-10T00:38:38.904Z,60.60
2023-05-10T00:39:38.894Z,51.73
2023-05-10T00:40:38.897Z,65.45
2023-05-10T00:41:38.869Z,62.19
2023-05-10T00:42:38.856Z,61.61
2023-05-10T00:43:38.852Z,56.41
2023-05-10T00:44:38.862Z,57.23
2023-05-10T00:45:38.848Z,55.53
2023-05-10T00:46:38.832Z,55.53
2023-05-10T00:47:38.908Z,61.77
2023-05-10T00:48:38.799Z,55.91
2023-05-10T00:49:38.802Z,55.16
2023-05-10T00:50:38.796Z,53.60
2023-05-10T00:51:38.783Z,53.49
2023-05-10T00:52:38.881Z,64.06
2023-05-10T00:53:38.772Z,59.52
2023-05-10T00:54:38.773Z,59.33
2023-05-10T00:55:38.808Z,64.38
2023-05-10T00:56:38.760Z,62.34
2023-05-10T00:57:38.763Z,61.74
2023-05-10T00:58:38.716Z,63.18
2023-05-10T00:59:38.723Z,59.06
2023-05-10T01:00:38.714Z,63.97
2023-05-10T01:01:38.807Z,61.87
2023-05-10T01:02:38.783Z,61.06
2023-05-10T01:03:38.744Z,61.74
2023-05-10T01:04:38.713Z,63.07
2023-05-10T01:05:38.671Z,65.29
2023-05-10T01:06:38.658Z,64.57
2023-05-10T01:07:38.636Z,60.32
2023-05-10T01:08:38.624Z,66.13
2023-05-10T01:09:38.687Z,60.22
2023-05-10T01:10:38.595Z,59.36
2023-05-10T01:11:38.646Z,59.05
2023-05-10T01:12:38.676Z,56.13
2023-05-10T01:13:38.591Z,62.62
2023-05-10T01:14:38.576Z,62.91
2023-05-10T01:15:38.612Z,57.36
2023-05-10T01:16:38.542Z,55.77
2023-05-10T01:17:38.555Z,56.30
2023-05-10T01:18:38.592Z,58.85
2023-05-10T01:19:38.519Z,59.86
2023-05-10T01:20:38.539Z,59.01
2023-05-10T01:21:38.522Z,60.96
2023-05-10T01:22:38.532Z,66.57
2023-05-10T01:23:38.495Z,66.22
2023-05-10T01:24:38.494Z,63.82
2023-05-10T01:25:38.485Z,58.11
2023-05-10T01:26:38.513Z,58.41
2023-05-10T01:27:38.459Z,51.96
2023-05-10T01:28:38.456Z,57.83
2023-05-10T01:29:38.436Z,55.08
2023-05-10T01:30:38.477Z,60.21
2023-05-10T01:31:38.443Z,64.58
2023-05-10T01:32:38.465Z,58.03
2023-05-10T01:33:38.462Z,60.10
2023-05-10T01:34:38.407Z,53.82
2023-05-10T01:35:38.437Z,61.17
2023-05-10T01:36:38.373Z,54.40
2023-05-10T01:37:38.432Z,57.35
2023-05-10T01:38:38.492Z,60.13
2023-05-10T01:39:38.359Z,58.08
2023-05-10T01:40:38.349Z,60.16
2023-05-10T01:41:38.367Z,58.95
2023-05-10T01:42:38.316Z,61.63
2023-05-10T01:43:38.314Z,60.32
2023-05-10T01:44:38.362Z,57.41
2023-05-10T01:45:38.316Z,58.12
2023-05-10T01:46:38.409Z,58.87
2023-05-10T01:47:38.330Z,59.76
2023-05-10T01:48:38.295Z,65.47
2023-05-10T01:49:38.265Z,63.07
2023-05-10T01:50:38.292Z,65.40
2023-05-10T01:51:38.245Z,61.17
2023-05-10T01:52:38.229Z,63.86
2023-05-10T01:53:38.237Z,60.54
2023-05-10T01:54:38.383Z,63.50
2023-05-10T01:55:38.251Z,59.83
2023-05-10T01:56:38.195Z,62.11
2023-05-10T01:57:38.190Z,56.92
2023-05-10T01:58:38.182Z,59.97
2023-05-10T01:59:38.196Z,60.64
2023-05-10T02:00:38.181Z,57.44
2023-05-10T02:01:38.175Z,67.67
2023-05-10T02:02:38.231Z,62.19
2023-05-10T02:03:38.179Z,60.84
2023-05-10T02:04:38.141Z,60.52
2023-05-10T02:05:38.167Z,56.63
2023-05-10T02:06:38.098Z,59.88
2023-05-10T02:07:38.105Z,57.91
2023-05-10T02:08:38.085Z,61.02
2023-05-10T02:09:38.082Z,57.81
2023-05-10T02:10:38.066Z,56.90
2023-05-10T02:11:38.086Z,64.61
2023-05-10T02:12:38.041Z,60.54
2023-05-10T02:13:38.035Z,60.57
2023-05-10T02:14:38.022Z,61.30
2023-05-10T02:15:38.024Z,57.72
2023-05-10T02:16:38.017Z,62.84
2023-05-10T02:17:38.109Z,60.08
2023-05-10T02:18:37.995Z,61.60
2023-05-10T02:19:37.997Z,61.88
2023-05-10T02:20:38.002Z,58.54
2023-05-10T02:21:37.967Z,60.30
2023-05-10T02:22:37.956Z,57.81
2023-05-10T02:23:38.011Z,55.97
2023-05-10T02:24:37.937Z,67.21
2023-05-10T02:25:37.942Z,65.77
2023-05-10T02:26:37.907Z,61.33
2023-05-10T02:27:37.980Z,59.72
2023-05-10T02:28:37.914Z,59.69
2023-05-10T02:29:37.939Z,62.39
2023-05-10T02:30:37.908Z,65.62
2023-05-10T02:31:37.895Z,53.74
2023-05-10T02:32:37.909Z,61.19
2023-05-10T02:33:37.886Z,64.26
2023-05-10T02:34:37.908Z,60.94
2023-05-10T02:35:37.839Z,63.24
2023-05-10T02:36:37.943Z,64.47
2023-05-10T02:37:37.839Z,70.12
2023-05-10T02:38:37.840Z,68.36
2023-05-10T02:39:37.827Z,67.17
2023-05-10T02:40:37.821Z,61.94
2023-05-10T02:41:37.795Z,61.38
2023-05-10T02:42:37.806Z,63.21
2023-05-10T02:43:37.798Z,68.46
2023-05-10T02:44:37.799Z,66.71
2023-05-10T02:45:37.789Z,61.89
2023-05-10T02:46:37.812Z,64.91
2023-05-10T02:47:37.833Z,66.16
2023-05-10T02:48:37.749Z,63.77
2023-05-10T02:49:37.736Z,68.62
2023-05-10T02:50:37.731Z,65.96
2023-05-10T02:51:37.743Z,67.34
2023-05-10T02:52:37.717Z,62.46
2023-05-10T02:53:37.700Z,65.26
2023-05-10T02:54:37.708Z,67.30
2023-05-10T02:55:37.695Z,71.59
2023-05-10T02:56:37.688Z,62.51
2023-05-10T02:57:37.716Z,62.86
2023-05-10T02:58:37.691Z,66.27
2023-05-10T02:59:37.662Z,65.84
2023-05-10T03:00:37.682Z,64.66
2023-05-10T03:01:37.682Z,65.11
2023-05-10T03:02:37.720Z,68.51
2023-05-10T03:03:37.693Z,61.53
2023-05-10T03:04:37.711Z,65.72
2023-05-10T03:05:37.621Z,67.53
2023-05-10T03:06:37.642Z,69.22
2023-05-10T03:07:37.657Z,68.30
2023-05-10T03:08:37.586Z,61.98
2023-05-10T03:09:37.601Z,63.00
2023-05-10T03:10:37.580Z,67.28
2023-05-10T03:11:37.564Z,68.17
2023-05-10T03:12:37.556Z,69.30
2023-05-10T03:13:37.544Z,65.38
2023-05-10T03:14:37.583Z,67.64
2023-05-10T03:15:37.637Z,67.82
2023-05-10T03:16:37.536Z,69.24
2023-05-10T03:17:37.528Z,66.73
2023-05-10T03:18:37.526Z,66.37
2023-05-10T03:19:37.502Z,66.71
2023-05-10T03:20:37.499Z,68.46
2023-05-10T03:21:37.502Z,63.92
2023-05-10T03:22:37.477Z,68.65
2023-05-10T03:23:37.501Z,66.08
2023-05-10T03:24:37.479Z,66.95
2023-05-10T03:25:37.448Z,63.32
2023-05-10T03:26:37.447Z,67.06
2023-05-10T03:27:37.452Z,66.29
2023-05-10T03:28:37.439Z,63.23
2023-05-10T03:29:37.591Z,67.96
2023-05-10T03:30:37.474Z,68.28
2023-05-10T03:31:37.495Z,62.49
2023-05-10T03:32:37.457Z,63.68
2023-05-10T03:33:37.406Z,70.52
2023-05-10T03:34:37.397Z,66.99
2023-05-10T03:35:37.369Z,67.30
2023-05-10T03:36:37.418Z,67.82
2023-05-10T03:37:37.406Z,66.50
2023-05-10T03:38:37.366Z,63.77
2023-05-10T03:39:37.352Z,66.77
2023-05-10T03:40:37.366Z,68.91
2023-05-10T03:41:37.327Z,64.74
2023-05-10T03:42:37.353Z,64.86
2023-05-10T03:43:37.340Z,64.34
2023-05-10T03:44:37.338Z,67.67
2023-05-10T03:45:37.302Z,67.12
2023-05-10T03:46:37.321Z,66.87
2023-05-10T03:47:37.310Z,69.64
2023-05-10T03:48:37.275Z,67.84
2023-05-10T03:49:37.274Z,67.13
2023-05-10T03:50:37.360Z,67.70
2023-05-10T03:51:37.274Z,65.10
2023-05-10T03:52:37.291Z,67.95
2023-05-10T03:53:37.257Z,69.35
2023-05-10T03:54:37.243Z,69.00
2023-05-10T03:55:37.228Z,68.07
2023-05-10T03:56:37.214Z,68.89
2023-05-10T03:57:37.216Z,69.26
2023-05-10T03:58:37.198Z,67.72
2023-05-10T03:59:37.246Z,69.13
2023-05-10T04:00:37.222Z,69.82
2023-05-10T04:01:37.243Z,67.24
2023-05-10T04:02:38.286Z,61.73
2023-05-10T04:03:37.233Z,69.18
2023-05-10T04:04:37.143Z,68.49
2023-05-10T04:05:37.117Z,70.23
2023-05-10T04:06:37.179Z,71.00
2023-05-10T04:07:37.131Z,70.45
2023-05-10T04:08:37.111Z,68.03
2023-05-10T04:09:37.103Z,67.86
2023-05-10T04:10:37.131Z,67.87
2023-05-10T04:11:37.088Z,65.85
2023-05-10T04:12:37.122Z,68.18
2023-05-10T04:13:37.067Z,64.15
2023-05-10T04:14:37.055Z,71.52
2023-05-10T04:15:37.108Z,66.05
2023-05-10T04:16:37.082Z,69.43
2023-05-10T04:17:37.078Z,67.31
2023-05-10T04:18:37.023Z,68.75
2023-05-10T04:19:37.009Z,65.91
2023-05-10T04:20:37.004Z,68.05
2023-05-10T04:21:37.016Z,66.40
2023-05-10T04:22:36.998Z,69.95
2023-05-10T04:23:36.978Z,66.97
2023-05-10T04:24:37.000Z,68.48
2023-05-10T04:25:37.018Z,67.39
2023-05-10T04:26:36.967Z,68.85
2023-05-10T04:27:36.988Z,69.37
2023-05-10T04:28:36.948Z,67.27
2023-05-10T04:29:36.934Z,67.65
2023-05-10T04:30:36.977Z,67.44
2023-05-10T04:31:36.911Z,66.67
2023-05-10T04:32:36.944Z,70.43
2023-05-10T04:33:36.949Z,70.22
2023-05-10T04:34:36.879Z,66.27
2023-05-10T04:35:36.886Z,68.23
2023-05-10T04:36:36.900Z,69.76
2023-05-10T04:37:36.881Z,67.41
2023-05-10T04:38:36.862Z,68.46
2023-05-10T04:39:36.910Z,68.99
2023-05-10T04:40:36.861Z,68.23
2023-05-10T04:41:36.808Z,70.21
2023-05-10T04:42:36.838Z,67.56
2023-05-10T04:43:36.810Z,67.29
2023-05-10T04:44:36.792Z,67.66
2023-05-10T04:45:36.853Z,70.78
2023-05-10T04:46:36.845Z,68.28
2023-05-10T04:47:36.782Z,68.17
2023-05-10T04:48:36.775Z,70.03
2023-05-10T04:49:36.767Z,71.15
2023-05-10T04:50:36.762Z,68.22
2023-05-10T04:51:36.799Z,66.28
2023-05-10T04:52:36.728Z,68.18
2023-05-10T04:53:36.733Z,66.43
2023-05-10T04:54:36.718Z,65.62
2023-05-10T04:55:36.720Z,70.28
2023-05-10T04:56:36.802Z,67.02
2023-05-10T04:57:36.801Z,66.54
2023-05-10T04:58:36.670Z,70.09
2023-05-10T04:59:36.659Z,69.70
2023-05-10T05:00:36.648Z,65.39
2023-05-10T05:01:36.644Z,70.39
2023-05-10T05:02:36.752Z,70.76
2023-05-10T05:03:36.794Z,70.11
2023-05-10T05:04:36.655Z,69.85
2023-05-10T05:05:36.623Z,67.75
2023-05-10T05:06:36.614Z,70.49
2023-05-10T05:07:36.585Z,67.65
2023-05-10T05:08:36.593Z,68.45
2023-05-10T05:09:36.623Z,67.38
2023-05-10T05:10:36.580Z,66.74
2023-05-10T05:11:36.592Z,68.02
2023-05-10T05:12:36.563Z,69.94
2023-05-10T05:13:36.560Z,70.35
2023-05-10T05:14:36.541Z,66.83
2023-05-10T05:15:37.192Z,70.10
2023-05-10T05:16:36.571Z,66.43
2023-05-10T05:17:36.524Z,68.43
2023-05-10T05:18:36.505Z,66.96
2023-05-10T05:19:36.500Z,66.70
2023-05-10T05:20:36.489Z,67.93
2023-05-10T05:21:36.522Z,70.22
2023-05-10T05:22:36.483Z,66.16
2023-05-10T05:23:36.538Z,67.00
2023-05-10T05:24:36.515Z,67.81
2023-05-10T05:25:36.686Z,67.25
2023-05-10T05:26:36.452Z,66.34
2023-05-10T05:27:36.458Z,69.91
2023-05-10T05:28:36.434Z,68.96
2023-05-10T05:29:36.413Z,66.70
2023-05-10T05:30:36.411Z,68.53
2023-05-10T05:31:36.459Z,67.80
2023-05-10T05:32:36.473Z,70.83
2023-05-10T05:33:36.416Z,69.26
2023-05-10T05:34:36.379Z,65.34
2023-05-10T05:35:36.353Z,68.03
2023-05-10T05:36:37.651Z,69.08
2023-05-10T05:37:36.348Z,67.40
2023-05-10T05:38:36.342Z,70.06
2023-05-10T05:39:36.549Z,68.97
2023-05-10T05:40:36.335Z,69.22
2023-05-10T05:41:36.311Z,68.44
2023-05-10T05:42:36.369Z,66.88
2023-05-10T05:43:38.419Z,70.39
2023-05-10T05:44:36.332Z,69.39
2023-05-10T05:45:36.335Z,65.39
2023-05-10T05:46:36.272Z,67.72
2023-05-10T05:47:36.305Z,67.92
2023-05-10T05:48:36.271Z,66.60
2023-05-10T05:49:36.246Z,68.25
2023-05-10T05:50:36.271Z,68.00
2023-05-10T05:51:36.242Z,65.70
2023-05-10T05:52:36.241Z,67.85
2023-05-10T05:53:36.283Z,69.99
2023-05-10T05:54:36.223Z,68.30
2023-05-10T05:55:36.260Z,67.82
2023-05-10T05:56:36.211Z,69.90
2023-05-10T05:57:36.223Z,68.12
2023-05-10T05:58:36.189Z,70.22
2023-05-10T05:59:36.179Z,66.03
2023-05-10T06:00:36.174Z,67.67
2023-05-10T06:01:36.146Z,64.74
2023-05-10T06:02:36.291Z,70.39
2023-05-10T06:03:37.080Z,66.06
2023-05-10T06:04:36.328Z,69.31
2023-05-10T06:05:36.127Z,69.55
2023-05-10T06:06:36.142Z,65.88
2023-05-10T06:07:36.128Z,68.72
2023-05-10T06:08:36.103Z,66.36
2023-05-10T06:09:36.072Z,70.77
2023-05-10T06:10:36.119Z,66.74
2023-05-10T06:11:36.130Z,68.50
2023-05-10T06:12:36.059Z,66.58
2023-05-10T06:13:36.082Z,68.53
2023-05-10T06:14:36.056Z,67.87
2023-05-10T06:15:36.050Z,67.94
2023-05-10T06:16:36.189Z,64.88
2023-05-10T06:17:36.036Z,67.73
2023-05-10T06:18:36.106Z,67.00
2023-05-10T06:19:36.068Z,69.58
2023-05-10T06:20:35.998Z,66.16
2023-05-10T06:21:35.982Z,68.70
2023-05-10T06:22:36.023Z,68.13
2023-05-10T06:23:35.958Z,67.02
2023-05-10T06:24:35.957Z,67.18
2023-05-10T06:25:35.933Z,66.67
2023-05-10T06:26:35.946Z,66.28
2023-05-10T06:27:35.916Z,67.29
2023-05-10T06:28:35.955Z,68.05
2023-05-10T06:29:35.962Z,68.98
2023-05-10T06:30:35.908Z,66.72
2023-05-10T06:31:35.893Z,66.33
2023-05-10T06:32:35.938Z,68.89
2023-05-10T06:33:35.874Z,67.67
2023-05-10T06:34:35.905Z,65.36
2023-05-10T06:35:35.853Z,68.09
2023-05-10T06:36:35.884Z,68.97
2023-05-10T06:37:35.831Z,66.88
2023-05-10T06:38:35.844Z,66.74
2023-05-10T06:39:35.858Z,68.57
2023-05-10T06:40:35.838Z,66.68
2023-05-10T06:41:35.804Z,66.69
2023-05-10T06:42:35.796Z,68.53
2023-05-10T06:43:35.821Z,66.85
2023-05-10T06:44:35.773Z,67.06
2023-05-10T06:45:36.125Z,66.96
2023-05-10T06:46:35.789Z,67.46
2023-05-10T06:47:38.764Z,67.44
2023-05-10T06:48:35.741Z,69.04
2023-05-10T06:49:35.768Z,70.35
2023-05-10T06:50:35.727Z,69.11
2023-05-10T06:51:35.723Z,65.98
2023-05-10T06:52:35.714Z,66.03
2023-05-10T06:53:35.714Z,66.08
2023-05-10T06:54:35.691Z,68.09
2023-05-10T06:55:35.761Z,67.04
2023-05-10T06:56:35.669Z,68.79
2023-05-10T06:57:35.683Z,68.95
2023-05-10T06:58:35.658Z,68.31
2023-05-10T06:59:35.758Z,64.14
2023-05-10T07:00:35.689Z,69.26
2023-05-10T07:01:35.750Z,66.45
2023-05-10T07:02:35.643Z,67.85
2023-05-10T07:03:35.645Z,67.85
2023-05-10T07:04:35.682Z,67.51
2023-05-10T07:05:35.891Z,66.65
2023-05-10T07:06:35.588Z,67.35
2023-05-10T07:07:35.603Z,65.62
2023-05-10T07:08:35.573Z,68.41
2023-05-10T07:09:35.617Z,66.66
2023-05-10T07:10:35.550Z,67.77
2023-05-10T07:11:35.596Z,65.92
2023-05-10T07:12:35.550Z,66.65
2023-05-10T07:13:35.578Z,69.35
2023-05-10T07:14:35.526Z,65.56
2023-05-10T07:15:35.524Z,67.44
2023-05-10T07:16:35.523Z,65.35
2023-05-10T07:17:35.670Z,69.06
2023-05-10T07:18:35.493Z,69.32
2023-05-10T07:19:35.468Z,68.29
2023-05-10T07:20:35.527Z,63.25
2023-05-10T07:21:35.539Z,66.73
2023-05-10T07:22:35.470Z,63.40
2023-05-10T07:23:35.456Z,67.94
2023-05-10T07:24:35.455Z,68.19
2023-05-10T07:25:35.423Z,65.37
2023-05-10T07:26:36.168Z,67.83
2023-05-10T07:27:35.461Z,68.35
2023-05-10T07:28:35.398Z,70.37
2023-05-10T07:29:35.403Z,66.95
2023-05-10T07:30:35.471Z,67.18
2023-05-10T07:31:35.422Z,67.69
2023-05-10T07:32:35.463Z,67.63
2023-05-10T07:33:35.594Z,66.92
2023-05-10T07:34:35.348Z,66.81
2023-05-10T07:35:35.356Z,66.23
2023-05-10T07:36:35.389Z,63.47
2023-05-10T07:37:35.356Z,66.95
2023-05-10T07:38:35.341Z,65.94
2023-05-10T07:39:35.416Z,68.12
2023-05-10T07:40:35.298Z,70.21
2023-05-10T07:41:35.814Z,67.01
2023-05-10T07:42:35.267Z,66.90
2023-05-10T07:43:35.277Z,67.79
2023-05-10T07:44:35.246Z,66.83
2023-05-10T07:45:35.319Z,66.60
2023-05-10T07:46:35.241Z,65.17
2023-05-10T07:47:35.270Z,67.06
2023-05-10T07:48:35.208Z,68.57
2023-05-10T07:49:35.218Z,67.96
2023-05-10T07:50:35.231Z,66.54
2023-05-10T07:51:35.394Z,68.71
2023-05-10T07:52:35.189Z,67.55
2023-05-10T07:53:35.174Z,68.19
2023-05-10T07:54:35.175Z,66.76
2023-05-10T07:55:35.163Z,66.85
2023-05-10T07:56:35.169Z,66.65
2023-05-10T07:57:35.146Z,67.69
2023-05-10T07:58:35.141Z,66.28
2023-05-10T07:59:35.138Z,66.85
2023-05-10T08:00:35.122Z,67.94
2023-05-10T08:01:35.140Z,69.31
2023-05-10T08:02:35.184Z,68.25
2023-05-10T08:03:35.146Z,69.78
2023-05-10T08:04:35.101Z,64.38
2023-05-10T08:05:35.865Z,65.54
2023-05-10T08:06:35.273Z,66.77
2023-05-10T08:07:35.172Z,69.50
2023-05-10T08:08:35.063Z,65.65
2023-05-10T08:09:35.069Z,68.85
2023-05-10T08:10:35.030Z,64.51
2023-05-10T08:11:35.337Z,68.61
2023-05-10T08:12:35.077Z,69.58
2023-05-10T08:13:35.056Z,65.77
2023-05-10T08:14:35.002Z,65.12
2023-05-10T08:15:35.045Z,68.10
2023-05-10T08:16:34.988Z,63.86
2023-05-10T08:17:35.002Z,67.55
2023-05-10T08:18:35.025Z,70.32
2023-05-10T08:19:34.970Z,67.92
2023-05-10T08:20:34.948Z,68.36
2023-05-10T08:21:34.956Z,66.73
2023-05-10T08:22:34.950Z,67.42
2023-05-10T08:23:34.944Z,66.43
2023-05-10T08:24:34.934Z,65.11
2023-05-10T08:25:34.976Z,67.25
2023-05-10T08:26:34.894Z,67.68
2023-05-10T08:27:34.920Z,65.36
2023-05-10T08:28:34.926Z,63.45
2023-05-10T08:29:46.286Z,65.40
2023-05-10T08:30:36.042Z,66.95
2023-05-10T08:31:34.887Z,65.18
2023-05-10T08:32:34.891Z,66.43
2023-05-10T08:33:34.860Z,65.84
2023-05-10T08:34:34.866Z,64.02
2023-05-10T08:35:34.841Z,67.45
2023-05-10T08:36:34.856Z,64.24
2023-05-10T08:37:34.815Z,65.48
2023-05-10T08:38:34.820Z,67.23
2023-05-10T08:39:34.816Z,64.67
2023-05-10T08:40:34.796Z,66.43
2023-05-10T08:41:34.785Z,69.10
2023-05-10T08:42:34.761Z,65.02
2023-05-10T08:43:34.759Z,68.41
2023-05-10T08:44:34.736Z,67.29
2023-05-10T08:45:34.734Z,69.80
2023-05-10T08:46:34.810Z,68.95
2023-05-10T08:47:34.775Z,65.84
2023-05-10T08:48:34.813Z,66.68
2023-05-10T08:49:34.771Z,66.46
2023-05-10T08:50:34.694Z,68.73
2023-05-10T08:51:34.686Z,67.01
2023-05-10T08:52:34.717Z,67.25
2023-05-10T08:53:34.713Z,66.06
2023-05-10T08:54:35.297Z,66.77
2023-05-10T08:55:34.664Z,68.47
2023-05-10T08:56:34.729Z,68.53
2023-05-10T08:57:34.646Z,67.77
2023-05-10T08:58:34.639Z,67.53
2023-05-10T08:59:34.661Z,69.19
2023-05-10T09:00:34.734Z,69.58
2023-05-10T09:01:34.614Z,69.92
2023-05-10T09:02:34.629Z,68.33
2023-05-10T09:03:34.598Z,69.99
2023-05-10T09:04:34.663Z,66.93
2023-05-10T09:05:34.614Z,65.27
2023-05-10T09:06:34.552Z,68.37
2023-05-10T09:07:36.278Z,67.85
2023-05-10T09:08:34.566Z,68.77
2023-05-10T09:09:34.557Z,68.15
2023-05-10T09:10:34.563Z,66.41
2023-05-10T09:11:34.650Z,66.50
2023-05-10T09:12:34.514Z,65.76
2023-05-10T09:13:34.538Z,68.08
2023-05-10T09:14:34.514Z,68.05
2023-05-10T09:15:34.509Z,68.91
2023-05-10T09:16:34.564Z,65.01
2023-05-10T09:17:34.536Z,64.94
2023-05-10T09:18:34.533Z,66.24
2023-05-10T09:19:34.452Z,62.42
2023-05-10T09:20:34.470Z,64.32
2023-05-10T09:21:34.457Z,66.79
2023-05-10T09:22:34.462Z,68.05
2023-05-10T09:23:34.428Z,64.14
2023-05-10T09:24:34.424Z,64.88
2023-05-10T09:25:34.415Z,65.92
2023-05-10T09:26:34.395Z,63.30
2023-05-10T09:27:34.460Z,64.43
2023-05-10T09:28:34.373Z,66.71
2023-05-10T09:29:34.409Z,64.00
2023-05-10T09:30:34.430Z,65.69
2023-05-10T09:31:34.368Z,66.19
2023-05-10T09:32:34.366Z,66.48
2023-05-10T09:33:34.364Z,67.28
2023-05-10T09:34:34.331Z,66.35
2023-05-10T09:35:34.345Z,68.09
2023-05-10T09:36:34.311Z,64.40
2023-05-10T09:37:34.320Z,65.79
2023-05-10T09:38:34.295Z,66.88
2023-05-10T09:39:34.322Z,62.11
2023-05-10T09:40:34.268Z,65.92
2023-05-10T09:41:34.272Z,66.33
2023-05-10T09:42:34.266Z,67.41
2023-05-10T09:43:34.274Z,65.38
2023-05-10T09:44:34.270Z,66.96
2023-05-10T09:45:37.030Z,67.21
2023-05-10T09:46:34.323Z,64.74
2023-05-10T09:47:34.230Z,62.99
2023-05-10T09:48:34.256Z,63.34
2023-05-10T09:49:34.275Z,67.34
2023-05-10T09:50:34.203Z,68.78
2023-05-10T09:51:36.155Z,65.04
2023-05-10T09:52:34.168Z,65.54
2023-05-10T09:53:34.180Z,63.15
2023-05-10T09:54:34.157Z,62.69
2023-05-10T09:55:34.153Z,64.57
2023-05-10T09:56:34.189Z,67.78
2023-05-10T09:57:35.259Z,67.00
2023-05-10T09:58:34.156Z,67.31
2023-05-10T09:59:34.164Z,64.49
2023-05-10T10:00:34.117Z,65.88
2023-05-10T10:01:34.141Z,67.05
2023-05-10T10:02:34.140Z,66.05
2023-05-10T10:03:34.359Z,63.91
2023-05-10T10:04:34.198Z,69.51
2023-05-10T10:05:34.556Z,67.86
2023-05-10T10:06:34.777Z,67.65
2023-05-10T10:07:34.197Z,66.22
2023-05-10T10:08:34.043Z,65.37
2023-05-10T10:09:34.103Z,64.55
2023-05-10T10:10:34.043Z,67.22
2023-05-10T10:11:34.111Z,67.24
2023-05-10T10:12:34.076Z,65.42
2023-05-10T10:13:34.071Z,65.53
2023-05-10T10:14:34.076Z,66.64
2023-05-10T10:15:34.235Z,64.02
2023-05-10T10:16:34.021Z,64.55
2023-05-10T10:17:34.080Z,69.00
2023-05-10T10:18:34.048Z,64.76
2023-05-10T10:19:33.956Z,67.48
2023-05-10T10:20:33.958Z,64.48
2023-05-10T10:21:33.942Z,66.80
2023-05-10T10:22:33.925Z,66.68
2023-05-10T10:23:33.941Z,64.38
2023-05-10T10:24:33.943Z,66.87
2023-05-10T10:25:33.937Z,66.05
2023-05-10T10:26:33.918Z,66.53
2023-05-10T10:27:33.897Z,65.03
2023-05-10T10:28:33.891Z,67.20
2023-05-10T10:29:33.909Z,68.14
2023-05-10T10:30:33.855Z,67.46
2023-05-10T10:31:33.935Z,64.86
2023-05-10T10:32:33.888Z,66.44
2023-05-10T10:33:33.863Z,68.06
2023-05-10T10:34:33.853Z,66.60
2023-05-10T10:35:33.835Z,65.26
2023-05-10T10:36:34.821Z,65.56
2023-05-10T10:37:33.818Z,66.83
2023-05-10T10:38:33.810Z,65.54
2023-05-10T10:39:33.792Z,67.56
2023-05-10T10:40:34.859Z,65.03
2023-05-10T10:41:33.860Z,65.29
2023-05-10T10:42:33.759Z,66.52
2023-05-10T10:43:33.772Z,66.99
2023-05-10T10:44:33.747Z,66.63
2023-05-10T10:45:33.754Z,66.28
2023-05-10T10:46:33.850Z,67.49
2023-05-10T10:47:33.750Z,68.11
2023-05-10T10:48:33.729Z,60.68
2023-05-10T10:49:33.810Z,65.75
2023-05-10T10:50:33.702Z,65.24
2023-05-10T10:51:33.718Z,64.24
2023-05-10T10:52:33.839Z,67.76
2023-05-10T10:53:33.677Z,65.45
2023-05-10T10:54:33.701Z,64.16
2023-05-10T10:55:33.701Z,63.05
2023-05-10T10:56:34.748Z,63.86
2023-05-10T10:57:33.688Z,65.33
2023-05-10T10:58:33.636Z,68.17
2023-05-10T10:59:33.613Z,67.12
2023-05-10T11:00:33.616Z,66.88
2023-05-10T11:01:33.702Z,67.09
2023-05-10T11:02:33.707Z,64.25
2023-05-10T11:03:33.611Z,64.38
2023-05-10T11:04:33.600Z,66.07
2023-05-10T11:05:33.606Z,61.17
2023-05-10T11:06:33.572Z,64.57
2023-05-10T11:07:33.558Z,65.37
2023-05-10T11:08:35.036Z,65.79
2023-05-10T11:09:33.539Z,62.06
2023-05-10T11:10:33.546Z,60.62
2023-05-10T11:11:33.530Z,65.52
2023-05-10T11:12:33.527Z,61.78
2023-05-10T11:13:33.501Z,64.12
2023-05-10T11:14:33.583Z,62.22
2023-05-10T11:15:33.556Z,67.23
2023-05-10T11:16:33.562Z,65.38
2023-05-10T11:17:33.519Z,67.63
2023-05-10T11:18:33.536Z,64.61
2023-05-10T11:19:33.481Z,62.78
2023-05-10T11:20:33.544Z,65.48
2023-05-10T11:21:33.475Z,62.69
2023-05-10T11:22:33.459Z,68.58
2023-05-10T11:23:33.440Z,62.76
2023-05-10T11:24:33.461Z,63.54
2023-05-10T11:25:33.463Z,67.63
2023-05-10T11:26:33.456Z,62.25
2023-05-10T11:27:33.417Z,65.18
2023-05-10T11:28:33.417Z,62.86
2023-05-10T11:29:33.367Z,65.10
2023-05-10T11:30:33.457Z,65.65
2023-05-10T11:31:33.436Z,63.25
2023-05-10T11:32:33.394Z,63.82
2023-05-10T11:33:33.347Z,64.47
2023-05-10T11:34:33.337Z,66.88
2023-05-10T11:35:33.376Z,66.68
2023-05-10T11:36:33.513Z,64.49
2023-05-10T11:37:33.341Z,64.67
2023-05-10T11:38:33.314Z,67.93
2023-05-10T11:39:33.383Z,63.67
2023-05-10T11:40:33.315Z,63.96
2023-05-10T11:41:33.309Z,64.94
2023-05-10T11:42:33.337Z,62.37
2023-05-10T11:43:33.299Z,61.04
2023-05-10T11:44:33.299Z,64.78
2023-05-10T11:45:33.254Z,62.61
2023-05-10T11:46:33.412Z,66.10
2023-05-10T11:47:33.311Z,63.26
2023-05-10T11:48:33.245Z,63.75
2023-05-10T11:49:33.287Z,63.91
2023-05-10T11:50:33.236Z,66.13
2023-05-10T11:51:33.209Z,64.58
2023-05-10T11:52:33.197Z,63.21
2023-05-10T11:53:33.181Z,61.87
2023-05-10T11:54:33.182Z,67.06
2023-05-10T11:55:33.231Z,61.76
2023-05-10T11:56:33.242Z,62.70
2023-05-10T11:57:33.150Z,65.62
2023-05-10T11:58:33.156Z,66.44
2023-05-10T11:59:33.133Z,64.16
2023-05-10T12:00:33.148Z,61.21
2023-05-10T12:01:33.123Z,63.40
2023-05-10T12:02:33.219Z,63.81
2023-05-10T12:03:33.264Z,61.08
2023-05-10T12:04:33.205Z,66.74
2023-05-10T12:05:33.099Z,64.58
2023-05-10T12:06:33.205Z,64.60
2023-05-10T12:07:33.072Z,61.60
2023-05-10T12:08:33.081Z,65.68
2023-05-10T12:09:43.435Z,66.90
2023-05-10T12:10:34.061Z,63.01
2023-05-10T12:11:33.067Z,63.74
2023-05-10T12:12:33.088Z,65.26
2023-05-10T12:13:33.024Z,64.72
2023-05-10T12:14:33.031Z,64.54
2023-05-10T12:15:33.020Z,66.87
2023-05-10T12:16:33.190Z,65.48
2023-05-10T12:17:33.019Z,66.17
2023-05-10T12:18:33.024Z,62.05
2023-05-10T12:19:33.003Z,64.41
2023-05-10T12:20:32.973Z,66.58
2023-05-10T12:21:32.955Z,63.79
2023-05-10T12:22:33.018Z,62.52
2023-05-10T12:23:32.950Z,66.14
2023-05-10T12:24:32.952Z,66.76
2023-05-10T12:25:32.938Z,64.34
2023-05-10T12:26:32.946Z,64.71
2023-05-10T12:27:32.966Z,64.58
2023-05-10T12:28:32.946Z,64.99
2023-05-10T12:29:32.931Z,65.20
2023-05-10T12:30:32.908Z,67.69
2023-05-10T12:31:32.952Z,64.90
2023-05-10T12:32:32.935Z,68.05
2023-05-10T12:33:32.903Z,66.23
2023-05-10T12:34:32.896Z,66.02
2023-05-10T12:35:32.853Z,62.30
2023-05-10T12:36:32.845Z,66.89
2023-05-10T12:37:32.846Z,67.16
2023-05-10T12:38:32.855Z,67.37
2023-05-10T12:39:32.892Z,65.96
2023-05-10T12:40:32.875Z,66.15
2023-05-10T12:41:32.798Z,65.37
2023-05-10T12:42:32.842Z,65.43
2023-05-10T12:43:32.788Z,66.34
2023-05-10T12:44:32.786Z,65.01
2023-05-10T12:45:32.818Z,65.85
2023-05-10T12:46:32.846Z,66.04
2023-05-10T12:47:32.778Z,65.89
2023-05-10T12:48:32.781Z,66.11
2023-05-10T12:49:32.751Z,66.86
2023-05-10T12:50:32.750Z,62.13
2023-05-10T12:51:32.753Z,65.46
2023-05-10T12:52:32.725Z,63.83